If you wish to contribute or participate in the discussions about articles you are invited to join SKYbrary as a registered user

 Actions

Kharkiv International Airport

From SKYbrary Wiki

UKHH
Airport
ICAO: UKHH
Summary
Name Kharkiv International Airport
Region Europe
Territory Ukraine UA.gif
Location Kharkiv
Serving
Coordinates 49° 55' 36.84" N, 36° 17' 31.24" E
Runways
Designator Length Width Surface ROPS
8/26 2220 m7,283.465 ft
50 m164.042 ft
PEM /


METAR
Observation UKHH 161400Z 05006MPS 9999 SCT011 BKN026 12/09 Q1016 R07/0///72 NOSIG
Station Kharkiv
Date/Time 16 April 2019 14:00:00
Wind direction 50°
Wind speed kts
Lowest cloud amount scattered clouds
Temperature 12°C
Dew point 9°C
Humidity 81%
QNH 1016 hPa
Weather condition n/a

Kharkiv International Airport (IATA: HRK) is an airport located in Kharkiv, Ukraine.